Time;durP1;ratioP1;P1;durP2;ratioP2;P2;SDS_P1;SDS_P2;PMS_P1;PMS_P2;Temp;Humidity;BMP_temperature;BMP_pressure;BME280_temperature;BME280_humidity;BME280_pressure;Samples;Min_cycle;Max_cycle;Signal;HPM_P1;HPM_P2
2023/03/01 00:01:24;;;;;;;21.63;12.02;;;;;;;7.88;71.95;95699.97;5069602;28;20048;-82
2023/03/01 00:03:50;;;;;;;68.35;40.53;;;;;;;7.32;72.77;95632.41;5068020;28;20431;-84
2023/03/01 00:06:16;;;;;;;71.35;45.42;;;;;;;7.82;72.86;95703.59;5068403;28;20032;-83
2023/03/01 00:08:43;;;;;;;45.80;34.35;;;;;;;7.51;73.36;95688.34;5073995;28;20048;-83
2023/03/01 00:11:13;;;;;;;33.50;26.85;;;;;;;6.96;73.12;95573.81;5074899;28;20038;-83
2023/03/01 00:13:39;;;;;;;21.77;17.52;;;;;;;7.65;73.88;95716.00;5067962;28;20044;-83
2023/03/01 00:16:08;;;;;;;17.00;10.25;;;;;;;7.12;73.15;95621.53;5069992;28;20039;-83
2023/03/01 00:18:33;;;;;;;9.05;6.53;;;;;;;7.17;73.73;95634.81;5068306;28;20195;-83
2023/03/01 00:20:59;;;;;;;7.55;5.60;;;;;;;7.27;73.26;95632.31;5067865;28;20036;-83
2023/03/01 00:23:25;;;;;;;6.07;3.85;;;;;;;7.69;73.44;95703.94;5069536;28;20146;-83
2023/03/01 00:25:50;;;;;;;5.05;3.58;;;;;;;7.32;73.25;95661.44;5069217;28;20032;-83
2023/03/01 00:28:16;;;;;;;5.07;3.20;;;;;;;7.80;73.03;95697.75;5078463;28;20033;-83
2023/03/01 00:30:42;;;;;;;4.57;3.28;;;;;;;7.67;72.91;95693.59;5068493;28;20051;-83
2023/03/01 00:33:08;;;;;;;6.60;4.10;;;;;;;7.24;73.04;95612.50;5069093;28;20024;-83
2023/03/01 00:35:34;;;;;;;9.32;4.97;;;;;;;7.38;72.69;95612.16;5067323;28;20036;-83
2023/03/01 00:38:00;;;;;;;9.70;5.93;;;;;;;7.25;72.10;95603.53;5068800;28;20097;-83
2023/03/01 00:40:31;;;;;;;24.30;9.50;;;;;;;7.34;72.12;95617.91;5068269;28;20086;-83
2023/03/01 00:42:56;;;;;;;21.08;8.00;;;;;;;6.83;72.91;95547.00;5068790;28;20089;-83
2023/03/01 00:45:22;;;;;;;17.85;7.85;;;;;;;6.38;72.89;95478.56;5067047;28;20557;-83
2023/03/01 00:47:51;;;;;;;21.40;9.10;;;;;;;7.61;73.33;95677.94;5076948;28;20035;-83
2023/03/01 00:50:18;;;;;;;18.30;7.20;;;;;;;7.45;73.59;95658.44;5069599;28;20051;-83
2023/03/01 00:52:43;;;;;;;14.05;6.20;;;;;;;6.76;73.52;95581.44;5067284;28;20085;-83
2023/03/01 00:55:09;;;;;;;9.30;4.43;;;;;;;7.26;73.31;95676.34;5066670;28;20032;-83
2023/03/01 00:57:35;;;;;;;6.82;3.67;;;;;;;7.35;74.18;95661.72;5067525;28;20028;-82
2023/03/01 01:00:00;;;;;;;5.15;3.08;;;;;;;7.45;73.30;95668.19;5067828;28;20559;-83
2023/03/01 01:02:26;;;;;;;6.10;3.88;;;;;;;7.58;73.58;95681.84;5068994;28;20064;-83
2023/03/01 01:04:51;;;;;;;4.43;2.80;;;;;;;7.48;73.79;95684.34;5069309;28;20497;-83
2023/03/01 01:07:19;;;;;;;4.30;2.90;;;;;;;7.52;73.89;95680.19;5069015;28;20036;-83
2023/03/01 01:09:45;;;;;;;5.10;2.80;;;;;;;7.28;73.65;95662.94;5067311;28;20035;-83
2023/03/01 01:12:11;;;;;;;3.97;3.08;;;;;;;6.65;73.49;95563.84;5067834;28;20032;-83
2023/03/01 01:14:36;;;;;;;3.30;2.85;;;;;;;7.15;73.33;95613.94;5067609;28;20495;-83
2023/03/01 01:17:01;;;;;;;3.30;2.63;;;;;;;7.16;73.69;95655.13;5069246;28;20028;-83
2023/03/01 01:19:27;;;;;;;3.55;2.72;;;;;;;6.58;73.80;95558.72;5069018;28;20487;-83
2023/03/01 01:21:52;;;;;;;5.13;2.65;;;;;;;7.51;72.94;95686.50;5068554;28;20020;-83
2023/03/01 01:24:19;;;;;;;3.55;2.50;;;;;;;7.26;73.70;95649.16;5069144;28;20029;-83
2023/03/01 01:26:44;;;;;;;3.60;2.47;;;;;;;7.08;73.68;95617.78;5067255;28;20474;-83
2023/03/01 01:29:10;;;;;;;4.13;2.70;;;;;;;7.15;72.51;95626.34;5068168;28;20031;-82
2023/03/01 01:31:37;;;;;;;2.65;2.13;;;;;;;7.46;72.76;95680.38;5067184;28;20484;-82
2023/03/01 01:34:05;;;;;;;3.20;2.50;;;;;;;6.61;72.47;95544.28;5076653;28;20081;-83
2023/03/01 01:36:31;;;;;;;3.15;2.30;;;;;;;7.53;73.02;95673.88;5068830;28;20028;-83
2023/03/01 01:38:57;;;;;;;6.43;2.30;;;;;;;6.68;72.65;95591.56;5067576;28;20367;-83
2023/03/01 01:41:25;;;;;;;4.28;2.92;;;;;;;6.50;73.29;95585.47;5070862;28;20595;-83
2023/03/01 01:44:10;;;;;;;2.97;2.47;;;;;;;7.21;73.56;95700.03;5070903;28;20041;-83
2023/03/01 01:46:40;;;;;;;4.30;2.72;;;;;;;6.49;73.57;95586.50;5072628;28;20043;-83
2023/03/01 01:49:19;;;;;;;3.88;2.60;;;;;;;6.79;73.72;95635.53;5071081;28;20503;-83
2023/03/01 01:51:48;;;;;;;2.72;2.33;;;;;;;7.12;73.75;95693.53;5070545;28;20186;-83
2023/03/01 01:54:29;;;;;;;3.28;2.15;;;;;;;6.47;74.00;95601.78;5070975;28;20032;-83
2023/03/01 01:56:58;;;;;;;;;;;;;;;6.92;73.72;95688.75;5067058;28;20533;-83
2023/03/01 01:59:25;;;;;;;3.22;2.00;;;;;;;6.90;73.87;95682.09;5072407;28;20303;-82
2023/03/01 02:01:54;;;;;;;3.28;2.33;;;;;;;6.91;73.69;95659.97;5083865;28;20466;-83
2023/03/01 02:04:20;;;;;;;2.28;1.85;;;;;;;6.41;73.80;95605.31;5072538;28;20032;-83
2023/03/01 02:06:54;;;;;;;2.53;1.67;;;;;;;6.58;73.59;95598.25;5071643;28;20640;-83
2023/03/01 02:09:21;;;;;;;2.85;2.28;;;;;;;7.12;73.05;95679.56;5070535;28;20124;-83
2023/03/01 02:11:48;;;;;;;3.10;2.50;;;;;;;6.58;72.29;95571.09;5071910;28;20115;-83
2023/03/01 02:14:15;;;;;;;5.38;2.42;;;;;;;7.28;72.37;95671.66;5070499;28;20021;-83
2023/03/01 02:16:42;;;;;;;2.15;1.95;;;;;;;7.33;71.68;95666.44;5048102;28;20036;-83
2023/03/01 02:19:13;;;;;;;4.68;2.30;;;;;;;7.34;71.90;95673.31;5069122;28;20033;-83
2023/03/01 02:21:56;;;;;;;2.40;2.05;;;;;;;7.10;71.34;95613.84;5070222;28;20418;-83
2023/03/01 02:24:42;;;;;;;2.38;2.17;;;;;;;7.14;71.05;95611.53;5066743;28;20047;-83
2023/03/01 02:27:09;;;;;;;2.25;1.95;;;;;;;6.94;71.45;95614.69;5074267;28;20034;-83
2023/03/01 02:29:35;;;;;;;1.67;1.58;;;;;;;6.60;72.02;95611.19;5071365;28;20032;-83
2023/03/01 02:32:03;;;;;;;1.95;1.80;;;;;;;6.83;72.20;95647.97;5070219;28;20102;-83
2023/03/01 02:34:31;;;;;;;3.10;1.85;;;;;;;6.26;72.05;95543.66;5051353;28;20035;-83
2023/03/01 02:37:02;;;;;;;2.38;2.13;;;;;;;7.16;72.44;95680.69;5068247;28;20035;-83
2023/03/01 02:39:36;;;;;;;3.60;2.33;;;;;;;6.31;72.50;95562.22;5071633;28;20024;-83
2023/03/01 02:42:04;;;;;;;2.88;2.42;;;;;;;6.37;71.93;95551.53;5070439;28;20580;-84
2023/03/01 02:44:29;;;;;;;4.18;2.22;;;;;;;7.15;72.57;95681.72;5069992;28;20043;-83
2023/03/01 02:46:57;;;;;;;2.60;2.30;;;;;;;7.07;72.94;95675.00;5071526;28;20028;-83
2023/03/01 02:49:26;;;;;;;2.20;1.90;;;;;;;6.83;72.42;95623.44;5066786;28;20028;-83
2023/03/01 02:52:22;;;;;;;2.42;2.03;;;;;;;7.23;72.71;95665.50;5071148;28;20390;-81
2023/03/01 02:54:55;;;;;;;2.38;2.10;;;;;;;6.83;72.25;95589.97;5071572;28;20103;-81
2023/03/01 02:57:22;;;;;;;3.78;2.40;;;;;;;6.51;72.57;95552.81;5069961;28;20028;-81
2023/03/01 02:59:48;;;;;;;3.05;2.15;;;;;;;7.36;72.10;95662.53;5064382;28;20032;-81
2023/03/01 03:02:35;;;;;;;3.10;2.10;;;;;;;7.26;73.20;95673.72;5066521;28;20047;-81
2023/03/01 03:05:03;;;;;;;4.15;2.05;;;;;;;6.57;73.10;95578.22;5067746;28;20036;-81
2023/03/01 03:07:28;;;;;;;3.92;2.65;;;;;;;7.19;72.89;95672.28;5071335;28;20506;-81
2023/03/01 03:09:54;;;;;;;9.90;2.88;;;;;;;6.81;72.08;95592.03;5077309;28;20179;-81
2023/03/01 03:12:19;;;;;;;7.13;2.97;;;;;;;6.66;72.85;95589.16;5068626;28;20040;-81
2023/03/01 03:14:44;;;;;;;3.90;2.55;;;;;;;6.41;72.15;95542.09;5066038;28;20035;-81
2023/03/01 03:17:10;;;;;;;3.28;2.95;;;;;;;6.87;72.62;95641.19;5071206;28;20043;-81
2023/03/01 03:19:35;;;;;;;4.00;2.90;;;;;;;6.42;72.92;95561.34;5071131;28;20032;-81
2023/03/01 03:22:01;;;;;;;7.07;3.50;;;;;;;6.15;72.97;95563.78;5076636;28;20470;-81
2023/03/01 03:24:37;;;;;;;3.45;2.60;;;;;;;6.77;73.81;95663.94;5071152;28;20032;-81
2023/03/01 03:27:03;;;;;;;5.65;3.10;;;;;;;6.97;73.40;95670.34;5060684;28;20084;-81
2023/03/01 03:29:29;;;;;;;5.95;3.10;;;;;;;7.00;73.42;95682.28;5069650;28;20460;-81
2023/03/01 03:31:54;;;;;;;5.05;3.30;;;;;;;6.43;73.71;95619.06;5068716;28;20032;-81
2023/03/01 03:34:20;;;;;;;4.10;2.90;;;;;;;6.80;73.37;95669.53;5077339;28;20028;-81
2023/03/01 03:36:45;;;;;;;4.05;2.70;;;;;;;6.91;73.48;95676.59;5071260;28;20028;-81
2023/03/01 03:39:10;;;;;;;6.30;2.83;;;;;;;5.94;73.58;95520.50;5079882;28;20032;-81
2023/03/01 03:41:36;;;;;;;4.53;2.95;;;;;;;6.06;73.85;95560.72;5062461;28;20029;-81
2023/03/01 03:46:45;;;;;;;4.03;3.08;;;;;;;6.39;73.90;95604.78;5066934;28;20119;-81
2023/03/01 03:49:10;;;;;;;4.13;3.15;;;;;;;6.91;73.90;95692.41;5069129;28;20104;-81
2023/03/01 03:51:36;;;;;;;6.20;4.35;;;;;;;6.98;73.57;95692.25;5063884;28;20451;-81
2023/03/01 03:54:01;;;;;;;5.40;3.05;;;;;;;7.13;73.02;95702.25;5068546;28;20024;-81
2023/03/01 03:56:27;;;;;;;3.90;3.17;;;;;;;6.66;72.88;95627.91;5068708;28;20136;-81
2023/03/01 04:02:21;;;;;;;3.97;3.17;;;;;;;6.12;73.01;95522.91;5070660;28;20055;-81
2023/03/01 04:04:50;;;;;;;3.92;3.15;;;;;;;6.74;72.18;95619.59;5063580;28;20047;-81
2023/03/01 04:07:16;;;;;;;6.47;3.17;;;;;;;6.73;72.28;95621.44;5060479;28;20526;-82
2023/03/01 04:09:43;;;;;;;7.18;3.17;;;;;;;7.28;72.30;95705.94;5066465;28;20043;-82
2023/03/01 04:12:09;;;;;;;5.03;3.17;;;;;;;6.45;72.55;95592.50;5065390;28;20560;-82
2023/03/01 04:14:34;;;;;;;7.40;3.58;;;;;;;6.54;72.20;95604.25;5064891;28;20033;-82
2023/03/01 04:17:00;;;;;;;6.05;3.55;;;;;;;6.32;72.47;95559.34;5058238;28;20041;-82
2023/03/01 04:19:26;;;;;;;3.13;2.63;;;;;;;7.28;72.45;95703.31;5069224;28;20039;-82
2023/03/01 04:21:52;;;;;;;3.65;2.38;;;;;;;7.39;72.15;95706.91;5065367;28;20037;-82
2023/03/01 04:24:18;;;;;;;7.22;3.05;;;;;;;7.26;72.49;95691.38;5066729;28;20458;-82
2023/03/01 04:26:43;;;;;;;5.32;3.20;;;;;;;6.43;71.72;95579.56;5065098;28;20051;-82
2023/03/01 04:29:09;;;;;;;4.40;2.90;;;;;;;6.63;72.18;95607.31;5061757;28;20031;-82
2023/03/01 04:31:34;;;;;;;4.47;2.78;;;;;;;6.69;73.18;95646.69;5068663;28;20107;-82
2023/03/01 04:34:00;;;;;;;4.00;2.80;;;;;;;6.68;72.70;95642.44;5070096;28;20457;-82
2023/03/01 04:36:28;;;;;;;6.10;2.90;;;;;;;7.02;73.07;95695.22;5067838;28;20024;-82
2023/03/01 04:38:54;;;;;;;6.57;2.92;;;;;;;6.38;73.02;95615.56;5061517;28;20029;-82
2023/03/01 04:41:22;;;;;;;6.75;2.75;;;;;;;7.13;72.29;95697.78;5069989;28;20107;-82
2023/03/01 04:43:48;;;;;;;7.43;2.72;;;;;;;6.43;72.49;95592.72;5055032;28;20090;-82
2023/03/01 04:46:17;;;;;;;3.95;2.40;;;;;;;6.51;72.74;95600.25;5067073;28;20032;-82
2023/03/01 04:48:44;;;;;;;5.22;2.72;;;;;;;6.92;73.30;95688.75;5065320;28;20090;-82
2023/03/01 04:51:13;;;;;;;4.38;2.38;;;;;;;6.28;73.68;95602.19;5066106;28;20082;-82
2023/03/01 04:53:39;;;;;;;4.60;2.65;;;;;;;6.70;73.39;95650.91;5071742;28;20386;-82
2023/03/01 04:56:05;;;;;;;6.45;3.10;;;;;;;6.81;73.52;95649.25;5067519;28;20029;-82
2023/03/01 04:58:31;;;;;;;5.70;3.20;;;;;;;7.04;72.94;95693.13;5072783;28;20040;-82
2023/03/01 05:00:56;;;;;;;4.75;3.47;;;;;;;6.44;73.45;95593.53;5069648;28;20048;-82
2023/03/01 05:03:22;;;;;;;4.60;3.30;;;;;;;6.77;73.93;95671.84;5073560;28;20498;-83
2023/03/01 05:05:49;;;;;;;5.22;3.42;;;;;;;6.43;73.40;95607.72;5066744;28;20150;-82
2023/03/01 05:08:18;;;;;;;5.13;3.20;;;;;;;6.98;73.43;95687.78;5064257;28;20029;-83
2023/03/01 05:10:46;;;;;;;4.68;3.58;;;;;;;7.01;73.36;95689.16;5065740;28;20489;-83
2023/03/01 05:13:20;;;;;;;5.65;4.32;;;;;;;6.92;73.47;95686.09;5059163;28;20025;-83
2023/03/01 05:16:00;;;;;;;6.25;4.20;;;;;;;6.28;73.71;95595.09;5056920;28;20030;-82
2023/03/01 05:18:26;;;;;;;13.15;4.60;;;;;;;6.49;74.20;95635.75;5062893;28;20513;-83
2023/03/01 05:20:55;;;;;;;11.93;5.03;;;;;;;6.69;73.47;95649.31;5077460;28;20027;-83
2023/03/01 05:23:22;;;;;;;10.07;6.18;;;;;;;6.88;73.92;95707.88;5057620;28;20029;-82
2023/03/01 05:25:47;;;;;;;12.13;6.15;;;;;;;6.53;74.83;95660.63;5079902;28;20592;-82
2023/03/01 05:28:13;;;;;;;13.07;6.35;;;;;;;6.20;74.13;95603.38;5061810;28;20119;-83
2023/03/01 05:30:39;;;;;;;12.75;7.80;;;;;;;6.32;74.10;95605.97;5061512;28;20032;-82
2023/03/01 05:33:10;;;;;;;13.13;7.80;;;;;;;5.94;73.75;95548.66;5056429;28;20174;-83
2023/03/01 05:35:36;;;;;;;12.23;5.85;;;;;;;6.41;73.15;95597.44;5047447;28;20029;-83
2023/03/01 05:38:02;;;;;;;14.18;5.50;;;;;;;6.36;73.36;95599.97;5059528;28;20028;-83
2023/03/01 05:40:29;;;;;;;10.98;6.25;;;;;;;6.36;73.97;95607.88;5063067;28;20412;-83
2023/03/01 05:42:56;;;;;;;14.23;5.32;;;;;;;6.95;73.82;95704.06;5060865;28;20029;-82
2023/03/01 05:45:23;;;;;;;8.30;5.10;;;;;;;6.87;74.10;95703.66;5061426;28;20036;-83
2023/03/01 05:47:50;;;;;;;6.72;4.45;;;;;;;6.77;73.99;95670.03;5059552;28;20473;-82
2023/03/01 05:50:28;;;;;;;10.90;5.47;;;;;;;6.94;73.27;95705.09;5059964;28;20117;-83
2023/03/01 05:53:15;;;;;;;10.88;5.13;;;;;;;6.92;73.87;95703.75;5068313;28;20033;-84
2023/03/01 05:55:41;;;;;;;8.48;5.30;;;;;;;7.07;72.92;95703.22;5061539;28;20060;-84
2023/03/01 05:58:16;;;;;;;8.38;5.45;;;;;;;6.74;73.69;95667.84;5066158;28;20107;-84
2023/03/01 06:00:43;;;;;;;8.30;5.40;;;;;;;7.08;73.15;95708.25;5065878;28;20052;-85
2023/03/01 06:03:11;;;;;;;8.18;5.18;;;;;;;7.16;72.95;95721.06;5063238;28;20281;-84
2023/03/01 06:05:39;;;;;;;9.80;5.03;;;;;;;6.41;73.25;95649.31;5066544;28;20055;-85
2023/03/01 06:08:06;;;;;;;7.78;4.80;;;;;;;6.03;73.21;95571.72;5067898;28;20040;-85
2023/03/01 06:10:31;;;;;;;10.02;4.82;;;;;;;6.37;73.49;95633.19;5061682;28;21142;-86
2023/03/01 06:12:57;;;;;;;20.17;4.80;;;;;;;6.77;74.57;95743.03;5058528;28;20040;-83
2023/03/01 06:15:24;;;;;;;8.25;4.22;;;;;;;7.05;73.26;95744.84;5053773;28;20025;-85
2023/03/01 06:17:50;;;;;;;8.75;4.07;;;;;;;4.83;72.96;95390.22;5062291;28;20047;-85
2023/03/01 06:20:21;;;;;;;8.48;4.32;;;;;;;5.73;73.57;95540.31;5047005;28;20334;-86
2023/03/01 06:22:49;;;;;;;5.25;3.33;;;;;;;5.96;73.10;95563.16;5060690;28;20028;-86
2023/03/01 06:25:20;;;;;;;11.48;4.15;;;;;;;4.49;73.37;95370.88;5078682;28;20106;-84
2023/03/01 06:27:52;;;;;;;5.63;3.70;;;;;;;4.60;73.78;95382.38;5063787;28;20043;-84
2023/03/01 06:30:22;;;;;;;10.25;4.13;;;;;;;6.64;73.32;95688.75;5076115;28;20040;-84
2023/03/01 06:32:49;;;;;;;12.63;3.97;;;;;;;3.05;73.01;95123.22;5063159;28;20028;-83
2023/03/01 06:35:18;;;;;;;6.25;4.13;;;;;;;3.65;73.12;95240.97;5066404;28;20036;-84
2023/03/01 06:37:45;;;;;;;9.18;3.65;;;;;;;5.50;73.11;95531.69;5067867;28;20040;-84
2023/03/01 06:40:11;;;;;;;6.43;3.45;;;;;;;6.35;72.97;95635.25;5065943;28;20185;-84
2023/03/01 06:42:40;;;;;;;9.38;3.25;;;;;;;6.22;72.58;95605.78;5067188;28;20562;-85
2023/03/01 06:45:07;;;;;;;7.93;3.08;;;;;;;6.82;73.10;95708.84;5066278;28;20544;-86
2023/03/01 06:47:33;;;;;;;8.43;3.65;;;;;;;7.00;72.83;95732.38;5064460;28;20758;-87
2023/03/01 06:50:00;;;;;;;10.95;4.38;;;;;;;7.10;73.27;95747.56;5072279;28;20063;-84
2023/03/01 06:52:27;;;;;;;7.13;4.38;;;;;;;6.89;72.16;95696.31;5067181;28;20033;-86
2023/03/01 06:54:53;;;;;;;9.52;4.63;;;;;;;5.07;71.89;95409.38;5068549;28;20028;-83
2023/03/01 06:57:18;;;;;;;9.00;4.00;;;;;;;6.90;72.03;95677.63;5067734;28;20523;-84
2023/03/01 06:59:44;;;;;;;10.45;3.65;;;;;;;7.01;72.30;95696.25;5059763;28;20036;-83
2023/03/01 07:02:14;;;;;;;13.05;4.35;;;;;;;7.42;72.15;95740.72;5067840;28;20052;-83
2023/03/01 07:04:40;;;;;;;9.50;4.13;;;;;;;7.05;72.03;95697.38;5061119;28;20052;-82
2023/03/01 07:07:06;;;;;;;10.88;3.22;;;;;;;7.14;71.92;95731.03;5059772;28;20120;-83
2023/03/01 07:09:34;;;;;;;6.95;3.13;;;;;;;6.42;72.70;95633.28;5061983;28;20086;-83
2023/03/01 07:12:01;;;;;;;13.20;3.50;;;;;;;6.38;73.42;95628.72;5064975;28;20044;-84
2023/03/01 07:14:26;;;;;;;8.05;3.60;;;;;;;7.08;72.42;95721.44;5063784;28;20122;-85
2023/03/01 07:16:58;;;;;;;5.13;2.80;;;;;;;6.82;72.73;95687.75;5072226;28;20378;-84
2023/03/01 07:19:23;;;;;;;4.38;2.85;;;;;;;5.09;72.93;95457.25;5064124;28;20067;-85
2023/03/01 07:21:51;;;;;;;7.93;3.20;;;;;;;5.51;72.60;95509.63;5062838;28;20038;-84
2023/03/01 07:24:16;;;;;;;7.45;3.63;;;;;;;5.22;72.18;95424.63;5074605;28;20477;-83
2023/03/01 07:26:42;;;;;;;7.07;3.50;;;;;;;4.84;72.88;95370.81;5061696;28;20097;-85
2023/03/01 07:29:09;;;;;;;4.75;2.88;;;;;;;5.02;72.06;95386.41;5060886;28;20060;-84
2023/03/01 07:31:35;;;;;;;12.18;3.60;;;;;;;5.83;71.39;95482.63;5059954;28;20044;-87
2023/03/01 07:34:00;;;;;;;5.75;3.53;;;;;;;5.09;71.11;95362.63;5065295;28;20115;-86
2023/03/01 07:36:26;;;;;;;10.50;3.35;;;;;;;6.34;71.02;95538.81;5062607;28;20491;-84
2023/03/01 07:38:52;;;;;;;11.00;4.72;;;;;;;7.35;71.05;95682.03;5063073;28;20036;-84
2023/03/01 07:41:17;;;;;;;13.57;4.90;;;;;;;5.55;70.24;95389.75;5056178;28;20047;-83
2023/03/01 07:43:43;;;;;;;3.83;2.88;;;;;;;5.49;70.65;95374.91;5062676;28;20055;-84
2023/03/01 07:46:08;;;;;;;5.60;2.92;;;;;;;6.22;70.09;95474.88;5060919;28;20160;-85
2023/03/01 07:48:36;;;;;;;8.02;2.83;;;;;;;7.65;69.51;95677.22;5061931;28;20072;-83
2023/03/01 07:51:05;;;;;;;5.43;3.10;;;;;;;7.45;70.07;95694.59;5068186;28;20171;-84
2023/03/01 07:53:36;;;;;;;9.07;3.67;;;;;;;7.90;69.38;95721.66;5058620;28;20048;-84
2023/03/01 07:56:07;;;;;;;7.65;3.20;;;;;;;7.54;69.52;95654.38;5051410;28;20037;-86
2023/03/01 07:58:37;;;;;;;8.98;3.30;;;;;;;8.00;68.47;95713.09;5076483;28;20036;-83
2023/03/01 08:01:04;;;;;;;4.13;2.75;;;;;;;7.97;67.87;95677.38;5056262;28;20080;-82
2023/03/01 08:03:30;;;;;;;6.18;3.13;;;;;;;7.58;68.25;95618.50;5057526;28;20120;-84
2023/03/01 08:05:55;;;;;;;13.90;3.42;;;;;;;7.45;67.99;95595.13;5061812;28;20031;-84
2023/03/01 08:08:21;;;;;;;6.88;3.25;;;;;;;7.36;67.90;95586.81;5056301;28;20037;-84
2023/03/01 08:10:46;;;;;;;18.40;4.60;;;;;;;7.53;67.68;95576.22;5055881;28;20082;-84
2023/03/01 08:13:12;;;;;;;6.55;3.13;;;;;;;7.96;67.88;95630.88;5054519;28;20115;-83
2023/03/01 08:15:37;;;;;;;8.38;2.88;;;;;;;8.32;67.31;95689.44;5062412;28;20028;-82
2023/03/01 08:18:03;;;;;;;7.68;2.40;;;;;;;7.51;67.20;95567.75;5063693;28;20036;-84
2023/03/01 08:20:28;;;;;;;12.05;2.90;;;;;;;7.89;67.29;95589.84;5061195;28;20028;-83
2023/03/01 08:22:53;;;;;;;16.67;5.28;;;;;;;7.77;66.82;95597.91;5062802;28;20388;-83
2023/03/01 08:25:21;;;;;;;6.32;3.28;;;;;;;7.97;66.89;95634.31;5065936;28;20029;-83
2023/03/01 08:27:47;;;;;;;7.47;2.75;;;;;;;7.80;67.32;95607.97;5066309;28;20028;-85
2023/03/01 08:30:13;;;;;;;10.32;3.50;;;;;;;7.21;67.30;95499.53;5059582;28;20032;-83
2023/03/01 08:32:39;;;;;;;6.32;3.08;;;;;;;8.03;67.68;95630.69;5059829;28;20051;-85
2023/03/01 08:35:08;;;;;;;5.18;3.00;;;;;;;7.80;66.70;95578.91;5060314;28;20116;-84
2023/03/01 08:37:34;;;;;;;5.97;2.50;;;;;;;8.69;65.85;95695.72;5048543;28;20124;-87
2023/03/01 08:40:00;;;;;;;7.45;2.88;;;;;;;8.38;66.17;95648.84;5057819;28;20056;-83
2023/03/01 08:42:26;;;;;;;6.30;3.63;;;;;;;6.90;66.82;95440.34;5058432;28;20178;-85
2023/03/01 08:44:51;;;;;;;7.05;3.17;;;;;;;8.35;66.44;95657.25;5071637;28;20388;-84
2023/03/01 08:47:17;;;;;;;5.60;2.95;;;;;;;8.10;66.35;95623.38;5064109;28;20056;-86
2023/03/01 08:49:42;;;;;;;5.97;3.50;;;;;;;8.12;66.56;95616.00;5065315;28;20551;-83
2023/03/01 08:52:08;;;;;;;10.90;3.20;;;;;;;6.46;66.02;95349.88;5058105;28;20522;-83
2023/03/01 08:54:35;;;;;;;27.15;8.68;;;;;;;8.77;64.50;95697.13;5070684;28;20123;-83
2023/03/01 08:57:03;;;;;;;15.27;5.55;;;;;;;8.31;63.73;95619.16;5059089;28;20145;-81
2023/03/01 08:59:35;;;;;;;8.23;4.68;;;;;;;8.88;64.90;95701.44;5065518;28;20043;-82
2023/03/01 09:02:00;;;;;;;7.30;3.13;;;;;;;8.29;63.99;95637.06;5062715;28;20177;-84
2023/03/01 09:04:26;;;;;;;10.32;3.72;;;;;;;8.51;64.26;95651.91;5054028;28;20028;-83
2023/03/01 09:06:51;;;;;;;7.43;3.22;;;;;;;8.34;63.97;95605.44;5061417;28;20493;-82
2023/03/01 09:09:17;;;;;;;3.78;2.75;;;;;;;8.31;63.60;95606.75;5063095;28;20116;-85
2023/03/01 09:11:45;;;;;;;5.47;3.13;;;;;;;7.99;63.67;95582.84;5062055;28;20066;-84
2023/03/01 09:14:14;;;;;;;4.35;2.40;;;;;;;8.34;63.50;95621.28;5058563;28;20037;-84
2023/03/01 09:16:39;;;;;;;3.53;2.45;;;;;;;8.33;63.35;95603.84;5053488;28;20067;-84
2023/03/01 09:19:05;;;;;;;9.55;2.70;;;;;;;8.78;63.27;95688.91;5057139;28;20114;-84
2023/03/01 09:21:31;;;;;;;7.18;2.72;;;;;;;7.23;63.83;95455.25;5063127;28;20047;-85
2023/03/01 09:23:58;;;;;;;3.97;2.33;;;;;;;7.47;63.85;95471.66;5062525;28;20038;-84
2023/03/01 09:26:24;;;;;;;6.10;2.22;;;;;;;5.37;64.14;95162.72;5066113;28;20029;-84
2023/03/01 09:28:54;;;;;;;8.82;3.33;;;;;;;5.29;64.33;95139.47;5063594;28;20048;-85
2023/03/01 09:31:22;;;;;;;4.15;2.38;;;;;;;8.97;64.84;95691.22;5058534;28;20039;-85
2023/03/01 09:33:50;;;;;;;8.43;2.60;;;;;;;6.85;64.90;95411.28;5064258;28;20536;-85
2023/03/01 09:36:20;;;;;;;6.18;3.53;;;;;;;5.85;64.88;95263.13;5065466;28;20028;-87
2023/03/01 09:38:47;;;;;;;11.98;3.00;;;;;;;5.41;64.15;95134.94;5060906;28;20568;-85
2023/03/01 09:41:46;;;;;;;8.60;2.88;;;;;;;8.26;63.94;95537.16;5059383;28;20043;-84
2023/03/01 09:44:47;;;;;;;5.97;3.22;;;;;;;9.27;63.36;95684.34;5065033;28;20036;-84
2023/03/01 09:47:20;;;;;;;9.48;3.40;;;;;;;5.89;63.20;95165.03;5063407;28;20071;-82
2023/03/01 09:49:58;;;;;;;6.95;3.40;;;;;;;8.65;63.77;95632.97;5061179;28;20409;-81
2023/03/01 09:52:48;;;;;;;4.00;2.10;;;;;;;9.10;63.89;95673.06;5059993;28;20051;-83
2023/03/01 09:55:20;;;;;;;8.48;2.30;;;;;;;9.13;63.10;95654.06;5062706;28;20040;-84
2023/03/01 09:58:11;;;;;;;3.03;2.13;;;;;;;9.40;62.91;95679.66;5060047;28;20033;-84
2023/03/01 10:00:42;;;;;;;4.57;2.22;;;;;;;8.24;62.89;95518.91;5062862;28;20170;-83
2023/03/01 10:03:28;;;;;;;4.82;2.42;;;;;;;9.47;61.94;95667.00;5065869;28;20039;-84
2023/03/01 10:06:12;;;;;;;3.45;2.10;;;;;;;9.47;62.29;95664.34;5072586;28;20040;-85
2023/03/01 10:08:43;;;;;;;9.80;3.03;;;;;;;9.04;62.17;95591.28;5070491;28;20511;-84
2023/03/01 10:11:23;;;;;;;17.67;5.25;;;;;;;9.23;62.35;95648.06;5070259;28;20140;-86
2023/03/01 10:13:58;;;;;;;10.25;3.03;;;;;;;9.28;62.42;95640.16;5069298;28;20455;-84
2023/03/01 10:16:52;;;;;;;11.57;3.60;;;;;;;8.69;61.64;95515.91;5080358;28;20032;-84
2023/03/01 10:19:31;;;;;;;3.47;1.90;;;;;;;9.74;61.84;95664.28;5071221;28;20038;-84
2023/03/01 10:22:04;;;;;;;10.68;2.80;;;;;;;9.35;61.98;95645.22;5069559;28;20041;-83
2023/03/01 10:24:34;;;;;;;5.90;2.42;;;;;;;9.51;62.10;95663.59;5070114;28;20028;-84
2023/03/01 10:27:12;;;;;;;6.25;2.88;;;;;;;8.48;61.93;95490.34;5069075;28;20113;-90
2023/03/01 10:29:48;;;;;;;3.88;2.22;;;;;;;9.24;62.01;95613.38;5063868;28;20090;-84
2023/03/01 10:32:14;;;;;;;6.38;2.33;;;;;;;8.93;61.94;95566.56;5059796;28;20116;-85
2023/03/01 10:34:40;;;;;;;3.95;1.90;;;;;;;9.43;61.20;95607.69;5061712;28;20056;-83
2023/03/01 10:37:18;;;;;;;3.78;2.30;;;;;;;9.66;61.33;95637.22;5061850;28;20127;-86
2023/03/01 10:40:08;;;;;;;5.13;2.13;;;;;;;9.15;61.79;95540.03;5060047;28;20037;-83
2023/03/01 10:42:47;;;;;;;6.82;2.40;;;;;;;9.80;61.33;95613.72;5061502;28;20032;-83
2023/03/01 10:45:23;;;;;;;5.05;2.20;;;;;;;9.24;60.28;95480.25;5065112;28;20120;-81
2023/03/01 10:48:19;;;;;;;5.50;2.78;;;;;;;9.88;60.48;95626.47;5079202;28;20032;-85
2023/03/01 10:50:48;;;;;;;4.20;2.33;;;;;;;10.07;60.16;95624.16;5070646;28;20024;-87
2023/03/01 10:53:49;;;;;;;2.92;1.80;;;;;;;9.83;59.90;95610.56;5073999;28;20036;-85
2023/03/01 10:56:15;;;;;;;2.50;1.63;;;;;;;9.92;59.22;95606.34;5085153;28;20123;-84
2023/03/01 10:58:58;;;;;;;6.93;2.25;;;;;;;9.10;60.18;95476.47;5071439;28;20032;-86
2023/03/01 11:01:26;;;;;;;2.38;1.65;;;;;;;10.28;59.22;95617.94;5064407;28;20256;-85
2023/03/01 11:04:12;;;;;;;7.90;2.05;;;;;;;10.31;59.43;95613.94;5070539;28;20123;-86
2023/03/01 11:06:57;;;;;;;7.97;2.00;;;;;;;9.94;59.58;95609.53;5083008;28;20030;-84
2023/03/01 11:09:27;;;;;;;6.00;1.80;;;;;;;8.36;60.63;95379.53;5069727;28;20029;-86
2023/03/01 11:11:57;;;;;;;4.15;1.67;;;;;;;6.97;60.89;95173.84;5067513;28;20097;-84
2023/03/01 11:14:31;;;;;;;2.90;1.50;;;;;;;9.42;59.73;95513.44;5069380;28;20039;-84
2023/03/01 11:17:25;;;;;;;5.80;2.10;;;;;;;9.47;60.05;95545.22;5065165;28;20036;-88
2023/03/01 11:20:13;;;;;;;4.68;1.80;;;;;;;10.24;59.96;95634.59;5072646;28;20056;-87
2023/03/01 11:23:15;;;;;;;4.35;1.70;;;;;;;10.02;61.28;95624.16;5066048;28;20108;-83
2023/03/01 11:26:16;;;;;;;7.45;1.80;;;;;;;10.00;61.16;95632.34;5014136;28;20121;-84
2023/03/01 11:28:44;;;;;;;5.22;2.25;;;;;;;9.92;59.79;95563.97;5022540;28;20134;-85
2023/03/01 11:31:12;;;;;;;3.30;1.98;;;;;;;9.94;58.93;95548.59;5081936;28;20032;-84
2023/03/01 11:33:55;;;;;;;5.93;1.50;;;;;;;9.73;59.34;95557.53;5065750;28;20078;-84
2023/03/01 11:36:42;;;;;;;5.22;2.35;;;;;;;10.16;59.60;95622.63;5072981;28;20044;-85
2023/03/01 11:39:32;;;;;;;4.22;1.80;;;;;;;10.11;60.95;95616.50;5064147;28;20067;-86
2023/03/01 11:42:44;;;;;;;5.45;2.35;;;;;;;10.20;60.83;95612.34;5059915;28;20037;-84
2023/03/01 11:45:11;;;;;;;;;;;;;;;10.17;60.66;95599.56;5035233;28;20153;-85
2023/03/01 11:48:15;;;;;;;4.35;1.85;;;;;;;10.33;59.39;95591.44;5065335;28;19967;-84
2023/03/01 11:50:46;;;;;;;5.50;2.10;;;;;;;9.62;59.83;95471.94;4962864;28;20050;-83
2023/03/01 11:53:57;;;;;;;3.58;2.20;;;;;;;10.45;59.73;95584.00;5065389;28;20155;-83
2023/03/01 11:56:29;;;;;;;19.77;3.90;;;;;;;10.43;59.56;95578.19;5079647;28;20083;-83
2023/03/01 11:59:30;;;;;;;6.85;3.70;;;;;;;10.15;59.88;95509.69;5074568;28;20070;-83